Bemidji, Minnesota
Current Conditions -  °F | °C
As of 12:52 AM on Thursday 27 Nov 2014 (Local Time) from KBJI Reporting Station
Clear Clear  
Wind Chill: -31°   Ceiling: Unl
Heat Index: -25°   Visibility: 10mi
Dew Point: -27°   Wind: 5mph
Humidity: 80%   Direction: 290°WNW
Pressure: 30.45"   Gusts: NA
Location:  47.47°N, 94.88°W
Report Text: KBJI 270652Z AUTO 29004KT 10SM CLR M25/M27 A3045 RMK AO2 T12481273
Loading
Personal Weather Stations






























Interactive Weather Map New forecast layout! Learn more

10-Day Weather Forecast

Advertisements
Track Severe Weather on mobile